sensor_id;sensor_type;location;lat;lon;timestamp;pressure;altitude;pressure_sealevel;temperature;humidity
24762;BME280;12865;51.934;10.330;2022-12-10T10:40:52;98492.50;;;-0.47;100.00
24762;BME280;12865;51.934;10.330;2022-12-10T10:43:41;98489.97;;;-0.48;100.00
24762;BME280;12865;51.934;10.330;2022-12-10T10:46:27;98491.91;;;-0.36;100.00
24762;BME280;12865;51.934;10.330;2022-12-10T10:52:16;98494.16;;;-0.30;100.00
24762;BME280;12865;51.934;10.330;2022-12-10T10:55:02;98496.97;;;-0.19;100.00
24762;BME280;12865;51.934;10.330;2022-12-10T10:57:51;98489.69;;;0.00;100.00
24762;BME280;12865;51.934;10.330;2022-12-10T11:00:37;98489.88;;;-0.03;100.00
24762;BME280;12865;51.934;10.330;2022-12-10T11:03:24;98496.41;;;-0.24;100.00
24762;BME280;12865;51.934;10.330;2022-12-10T11:06:11;98497.53;;;-0.14;100.00
24762;BME280;12865;51.934;10.330;2022-12-10T11:08:58;98494.16;;;-0.30;100.00
24762;BME280;12865;51.934;10.330;2022-12-10T11:11:50;98492.81;;;-0.37;100.00
24762;BME280;12865;51.934;10.330;2022-12-10T11:14:43;98500.28;;;-0.45;100.00
24762;BME280;12865;51.934;10.330;2022-12-10T11:17:30;98504.63;;;-0.30;100.00
24762;BME280;12865;51.934;10.330;2022-12-10T11:20:20;98498.06;;;-0.37;100.00
24762;BME280;12865;51.934;10.330;2022-12-10T11:23:10;98502.53;;;-0.39;100.00
24762;BME280;12865;51.934;10.330;2022-12-10T11:26:32;98504.09;;;-0.51;100.00
24762;BME280;12865;51.934;10.330;2022-12-10T11:29:43;98501.38;;;-0.05;100.00
24762;BME280;12865;51.934;10.330;2022-12-10T11:32:52;98500.41;;;-0.32;100.00
24762;BME280;12865;51.934;10.330;2022-12-10T11:36:22;98504.41;;;-0.27;100.00
24762;BME280;12865;51.934;10.330;2022-12-10T11:42:17;98502.75;;;-0.14;100.00
24762;BME280;12865;51.934;10.330;2022-12-10T11:45:20;98500.13;;;-0.14;100.00
24762;BME280;12865;51.934;10.330;2022-12-10T11:48:28;98499.09;;;-0.25;100.00
24762;BME280;12865;51.934;10.330;2022-12-10T11:51:23;98501.75;;;-0.41;100.00
24762;BME280;12865;51.934;10.330;2022-12-10T12:03:06;98502.41;;;-0.22;100.00
24762;BME280;12865;51.934;10.330;2022-12-10T12:12:35;98497.25;;;-0.23;100.00
24762;BME280;12865;51.934;10.330;2022-12-10T12:15:33;98500.41;;;-0.32;100.00
24762;BME280;12865;51.934;10.330;2022-12-10T12:18:38;98503.78;;;-0.30;100.00
24762;BME280;12865;51.934;10.330;2022-12-10T12:21:25;98504.97;;;-0.36;100.00
24762;BME280;12865;51.934;10.330;2022-12-10T12:24:21;98498.53;;;-0.30;100.00
24762;BME280;12865;51.934;10.330;2022-12-10T12:27:27;98508.59;;;-0.09;100.00
24762;BME280;12865;51.934;10.330;2022-12-10T12:30:21;98506.13;;;-0.26;100.00
24762;BME280;12865;51.934;10.330;2022-12-10T12:33:16;98507.03;;;-0.27;100.00
24762;BME280;12865;51.934;10.330;2022-12-10T12:36:24;98510.13;;;-0.20;100.00
24762;BME280;12865;51.934;10.330;2022-12-10T12:42:25;98502.09;;;-0.31;100.00
24762;BME280;12865;51.934;10.330;2022-12-10T12:45:21;98506.63;;;-0.49;100.00
24762;BME280;12865;51.934;10.330;2022-12-10T12:54:11;98504.09;;;-0.51;100.00
24762;BME280;12865;51.934;10.330;2022-12-10T13:00:19;98510.69;;;-0.59;100.00
24762;BME280;12865;51.934;10.330;2022-12-10T13:03:32;98509.63;;;-0.71;100.00
24762;BME280;12865;51.934;10.330;2022-12-10T13:06:22;98514.03;;;-0.71;100.00
24762;BME280;12865;51.934;10.330;2022-12-10T13:17:37;98523.44;;;-0.69;100.00
24762;BME280;12865;51.934;10.330;2022-12-10T13:26:29;98522.59;;;-0.69;100.00
24762;BME280;12865;51.934;10.330;2022-12-10T13:29:25;98517.91;;;-0.78;100.00
24762;BME280;12865;51.934;10.330;2022-12-10T13:32:19;98516.88;;;-0.76;100.00
24762;BME280;12865;51.934;10.330;2022-12-10T13:38:05;98521.09;;;-0.73;100.00
24762;BME280;12865;51.934;10.330;2022-12-10T13:41:05;98530.56;;;-0.87;100.00
24762;BME280;12865;51.934;10.330;2022-12-10T13:50:35;98542.88;;;-0.89;100.00
24762;BME280;12865;51.934;10.330;2022-12-10T13:56:31;98540.28;;;-1.04;100.00
24762;BME280;12865;51.934;10.330;2022-12-10T13:59:31;98541.56;;;-1.27;100.00
24762;BME280;12865;51.934;10.330;2022-12-10T14:05:25;98543.47;;;-1.31;100.00
24762;BME280;12865;51.934;10.330;2022-12-10T14:08:18;98550.06;;;-1.24;100.00
24762;BME280;12865;51.934;10.330;2022-12-10T14:11:13;98552.69;;;-1.24;100.00
24762;BME280;12865;51.934;10.330;2022-12-10T14:14:04;98551.81;;;-1.24;100.00
24762;BME280;12865;51.934;10.330;2022-12-10T14:16:50;98556.28;;;-1.26;100.00
24762;BME280;12865;51.934;10.330;2022-12-10T14:19:36;98555.56;;;-1.12;100.00
24762;BME280;12865;51.934;10.330;2022-12-10T14:22:46;98556.28;;;-1.42;100.00
24762;BME280;12865;51.934;10.330;2022-12-10T14:25:41;98567.50;;;-1.24;100.00
24762;BME280;12865;51.934;10.330;2022-12-10T14:28:30;98559.41;;;-1.35;100.00
24762;BME280;12865;51.934;10.330;2022-12-10T14:31:18;98569.28;;;-1.40;100.00
24762;BME280;12865;51.934;10.330;2022-12-10T14:34:07;98561.25;;;-1.37;100.00
24762;BME280;12865;51.934;10.330;2022-12-10T14:36:55;98576.63;;;-1.31;100.00
24762;BME280;12865;51.934;10.330;2022-12-10T14:39:42;98573.25;;;-1.33;100.00
24762;BME280;12865;51.934;10.330;2022-12-10T14:42:27;98583.16;;;-1.40;100.00
24762;BME280;12865;51.934;10.330;2022-12-10T14:45:14;98579.22;;;-1.31;100.00
24762;BME280;12865;51.934;10.330;2022-12-10T14:48:00;98572.16;;;-1.29;100.00
24762;BME280;12865;51.934;10.330;2022-12-10T14:50:46;98574.69;;;-1.28;100.00
24762;BME280;12865;51.934;10.330;2022-12-10T14:53:32;98578.34;;;-1.14;100.00
24762;BME280;12865;51.934;10.330;2022-12-10T14:56:33;98582.63;;;-1.29;100.00
24762;BME280;12865;51.934;10.330;2022-12-10T14:59:29;98578.31;;;-1.30;100.00
24762;BME280;12865;51.934;10.330;2022-12-10T15:02:26;98576.78;;;-1.34;100.00
24762;BME280;12865;51.934;10.330;2022-12-10T15:05:18;98580.34;;;-1.35;100.00
24762;BME280;12865;51.934;10.330;2022-12-10T15:08:15;98582.88;;;-1.34;100.00
24762;BME280;12865;51.934;10.330;2022-12-10T15:11:02;98588.06;;;-1.49;100.00
24762;BME280;12865;51.934;10.330;2022-12-10T15:13:53;98587.00;;;-1.30;100.00
24762;BME280;12865;51.934;10.330;2022-12-10T15:16:42;98589.88;;;-1.34;100.00
24762;BME280;12865;51.934;10.330;2022-12-10T15:25:14;98595.94;;;-1.18;100.00
24762;BME280;12865;51.934;10.330;2022-12-10T15:28:04;98591.47;;;-1.32;100.00
24762;BME280;12865;51.934;10.330;2022-12-10T15:30:50;98602.03;;;-1.33;100.00
24762;BME280;12865;51.934;10.330;2022-12-10T15:33:46;98607.91;;;-1.30;100.00
24762;BME280;12865;51.934;10.330;2022-12-10T15:39:37;98604.13;;;-1.24;100.00
24762;BME280;12865;51.934;10.330;2022-12-10T15:42:39;98596.69;;;-1.32;100.00
24762;BME280;12865;51.934;10.330;2022-12-10T15:45:39;98598.34;;;-1.46;100.00
24762;BME280;12865;51.934;10.330;2022-12-10T15:48:28;98609.31;;;-1.40;100.00
24762;BME280;12865;51.934;10.330;2022-12-10T15:51:14;98608.50;;;-1.40;100.00
24762;BME280;12865;51.934;10.330;2022-12-10T15:53:59;98608.38;;;-1.39;100.00
24762;BME280;12865;51.934;10.330;2022-12-10T15:56:45;98616.94;;;-1.35;100.00
24762;BME280;12865;51.934;10.330;2022-12-10T15:59:31;98615.56;;;-1.42;100.00
24762;BME280;12865;51.934;10.330;2022-12-10T16:05:23;98617.44;;;-1.29;100.00
24762;BME280;12865;51.934;10.330;2022-12-10T16:08:22;98621.75;;;-1.12;100.00
24762;BME280;12865;51.934;10.330;2022-12-10T16:11:17;98613.00;;;-1.27;100.00
24762;BME280;12865;51.934;10.330;2022-12-10T16:14:03;98611.19;;;-1.26;100.00
24762;BME280;12865;51.934;10.330;2022-12-10T16:16:50;98614.91;;;-1.30;100.00
24762;BME280;12865;51.934;10.330;2022-12-10T16:19:35;98611.19;;;-1.26;100.00
24762;BME280;12865;51.934;10.330;2022-12-10T16:22:22;98611.97;;;-1.24;100.00
24762;BME280;12865;51.934;10.330;2022-12-10T16:25:08;98603.84;;;-1.35;100.00
24762;BME280;12865;51.934;10.330;2022-12-10T16:27:53;98603.84;;;-1.35;100.00
24762;BME280;12865;51.934;10.330;2022-12-10T16:30:51;98606.66;;;-1.23;100.00
24762;BME280;12865;51.934;10.330;2022-12-10T16:33:37;98615.91;;;-1.33;100.00
24762;BME280;12865;51.934;10.330;2022-12-10T16:36:22;98613.41;;;-1.34;100.00
24762;BME280;12865;51.934;10.330;2022-12-10T16:39:08;98608.19;;;-1.51;100.00
24762;BME280;12865;51.934;10.330;2022-12-10T16:41:54;98612.94;;;-1.42;100.00
24762;BME280;12865;51.934;10.330;2022-12-10T16:44:40;98613.88;;;-1.43;100.00
24762;BME280;12865;51.934;10.330;2022-12-10T16:47:26;98610.16;;;-1.39;100.00
24762;BME280;12865;51.934;10.330;2022-12-10T16:50:13;98618.25;;;-1.44;100.00
24762;BME280;12865;51.934;10.330;2022-12-10T16:55:27;98614.00;;;-1.46;100.00
24762;BME280;12865;51.934;10.330;2022-12-10T16:58:13;98616.34;;;-1.40;100.00
24762;BME280;12865;51.934;10.330;2022-12-10T17:01:00;98619.16;;;-1.45;100.00
24762;BME280;12865;51.934;10.330;2022-12-10T17:03:47;98620.19;;;-1.47;100.00
24762;BME280;12865;51.934;10.330;2022-12-10T17:06:33;98614.97;;;-1.47;100.00
24762;BME280;12865;51.934;10.330;2022-12-10T17:09:19;98623.41;;;-1.42;100.00
24762;BME280;12865;51.934;10.330;2022-12-10T17:12:06;98615.75;;;-1.30;100.00
24762;BME280;12865;51.934;10.330;2022-12-10T17:14:52;98620.00;;;-1.27;100.00
24762;BME280;12865;51.934;10.330;2022-12-10T17:17:38;98628.16;;;-1.17;100.00
24762;BME280;12865;51.934;10.330;2022-12-10T17:20:24;98620.03;;;-0.96;100.00
24762;BME280;12865;51.934;10.330;2022-12-10T17:23:11;98627.19;;;-1.15;100.00
24762;BME280;12865;51.934;10.330;2022-12-10T17:25:57;98621.34;;;-1.04;100.00
24762;BME280;12865;51.934;10.330;2022-12-10T17:28:46;98628.25;;;-1.19;100.00
24762;BME280;12865;51.934;10.330;2022-12-10T17:31:32;98628.34;;;-1.05;100.00
24762;BME280;12865;51.934;10.330;2022-12-10T17:34:18;98631.31;;;-1.11;100.00
24762;BME280;12865;51.934;10.330;2022-12-10T17:37:09;98623.03;;;-1.19;100.00
24762;BME280;12865;51.934;10.330;2022-12-10T17:39:56;98623.56;;;-1.12;100.00
24762;BME280;12865;51.934;10.330;2022-12-10T17:42:41;98624.81;;;-1.20;100.00
24762;BME280;12865;51.934;10.330;2022-12-10T17:45:28;98631.97;;;-1.23;100.00
24762;BME280;12865;51.934;10.330;2022-12-10T17:48:15;98631.81;;;-1.20;100.00
24762;BME280;12865;51.934;10.330;2022-12-10T17:51:01;98626.41;;;-1.17;100.00
24762;BME280;12865;51.934;10.330;2022-12-10T17:53:47;98626.41;;;-1.17;100.00
24762;BME280;12865;51.934;10.330;2022-12-10T17:56:33;98625.16;;;-1.10;100.00
24762;BME280;12865;51.934;10.330;2022-12-10T17:59:19;98629.59;;;-1.12;100.00
24762;BME280;12865;51.934;10.330;2022-12-10T18:02:04;98628.09;;;-1.16;100.00
24762;BME280;12865;51.934;10.330;2022-12-10T18:04:50;98630.72;;;-1.16;100.00
24762;BME280;12865;51.934;10.330;2022-12-10T18:07:36;98628.09;;;-1.16;100.00
24762;BME280;12865;51.934;10.330;2022-12-10T18:10:24;98634.94;;;-1.13;100.00
24762;BME280;12865;51.934;10.330;2022-12-10T18:13:11;98639.31;;;-1.14;100.00
24762;BME280;12865;51.934;10.330;2022-12-10T18:15:56;98636.63;;;-1.12;100.00
24762;BME280;12865;51.934;10.330;2022-12-10T18:18:42;98642.03;;;-1.15;100.00
24762;BME280;12865;51.934;10.330;2022-12-10T18:21:28;98640.91;;;-1.11;100.00
24762;BME280;12865;51.934;10.330;2022-12-10T18:24:14;98641.75;;;-1.11;100.00
24762;BME280;12865;51.934;10.330;2022-12-10T18:27:00;98644.22;;;-1.08;100.00
24762;BME280;12865;51.934;10.330;2022-12-10T18:29:46;98637.44;;;-1.12;100.00
24762;BME280;12865;51.934;10.330;2022-12-10T18:32:32;98648.69;;;-1.10;100.00
24762;BME280;12865;51.934;10.330;2022-12-10T18:35:18;98647.75;;;-1.09;100.00
24762;BME280;12865;51.934;10.330;2022-12-10T18:38:04;98643.63;;;-1.13;100.00
24762;BME280;12865;51.934;10.330;2022-12-10T18:40:50;98648.88;;;-1.13;100.00
24762;BME280;12865;51.934;10.330;2022-12-10T18:43:35;98650.22;;;-1.06;100.00
24762;BME280;12865;51.934;10.330;2022-12-10T18:46:25;98645.94;;;-1.07;100.00
24762;BME280;12865;51.934;10.330;2022-12-10T18:49:12;98642.88;;;-1.15;100.00
24762;BME280;12865;51.934;10.330;2022-12-10T18:51:58;98641.75;;;-1.11;100.00
24762;BME280;12865;51.934;10.330;2022-12-10T18:54:44;98649.47;;;-1.08;100.00
24762;BME280;12865;51.934;10.330;2022-12-10T18:57:29;98647.00;;;-1.11;100.00
24762;BME280;12865;51.934;10.330;2022-12-10T19:00:18;98659.22;;;-1.11;100.00
24762;BME280;12865;51.934;10.330;2022-12-10T19:03:04;98654.00;;;-1.11;100.00
24762;BME280;12865;51.934;10.330;2022-12-10T19:05:51;98657.75;;;-1.00;100.00
24762;BME280;12865;51.934;10.330;2022-12-10T19:08:37;98659.44;;;-0.99;100.00
24762;BME280;12865;51.934;10.330;2022-12-10T19:11:23;98657.31;;;-1.08;100.00
24762;BME280;12865;51.934;10.330;2022-12-10T19:14:09;98653.59;;;-1.20;100.00
24762;BME280;12865;51.934;10.330;2022-12-10T19:16:55;98661.84;;;-1.11;100.00
24762;BME280;12865;51.934;10.330;2022-12-10T19:19:42;98666.91;;;-1.08;100.00
24762;BME280;12865;51.934;10.330;2022-12-10T19:22:28;98660.88;;;-1.26;100.00
24762;BME280;12865;51.934;10.330;2022-12-10T19:25:14;98661.19;;;-1.32;100.00
24762;BME280;12865;51.934;10.330;2022-12-10T19:28:00;98651.59;;;-1.32;100.00
24762;BME280;12865;51.934;10.330;2022-12-10T19:30:46;98660.34;;;-1.33;100.00
24762;BME280;12865;51.934;10.330;2022-12-10T19:33:32;98663.38;;;-1.40;100.00
24762;BME280;12865;51.934;10.330;2022-12-10T19:36:20;98657.00;;;-1.35;100.00
24762;BME280;12865;51.934;10.330;2022-12-10T19:39:18;98654.69;;;-1.41;100.00
24762;BME280;12865;51.934;10.330;2022-12-10T19:42:04;98651.84;;;-1.36;100.00
24762;BME280;12865;51.934;10.330;2022-12-10T19:44:50;98658.44;;;-1.46;100.00
24762;BME280;12865;51.934;10.330;2022-12-10T19:47:36;98652.09;;;-1.41;100.00
24762;BME280;12865;51.934;10.330;2022-12-10T19:50:24;98646.09;;;-1.43;100.00
24762;BME280;12865;51.934;10.330;2022-12-10T19:53:10;98651.00;;;-1.37;100.00
24762;BME280;12865;51.934;10.330;2022-12-10T19:55:56;98649.22;;;-1.36;100.00
24762;BME280;12865;51.934;10.330;2022-12-10T19:58:41;98647.28;;;-1.33;100.00
24762;BME280;12865;51.934;10.330;2022-12-10T20:01:28;98650.34;;;-1.25;100.00
24762;BME280;12865;51.934;10.330;2022-12-10T20:04:15;98654.81;;;-1.27;100.00
24762;BME280;12865;51.934;10.330;2022-12-10T20:07:01;98648.31;;;-1.35;100.00
24762;BME280;12865;51.934;10.330;2022-12-10T20:09:46;98651.19;;;-1.24;100.00
24762;BME280;12865;51.934;10.330;2022-12-10T20:12:32;98661.94;;;-1.13;100.00
24762;BME280;12865;51.934;10.330;2022-12-10T20:15:20;98651.59;;;-0.99;100.00
24762;BME280;12865;51.934;10.330;2022-12-10T20:18:06;98658.81;;;-1.04;100.00
24762;BME280;12865;51.934;10.330;2022-12-10T20:20:51;98651.78;;;-1.19;100.00
24762;BME280;12865;51.934;10.330;2022-12-10T20:23:37;98654.25;;;-1.16;100.00
24762;BME280;12865;51.934;10.330;2022-12-10T20:26:29;98655.88;;;-0.98;100.00
24762;BME280;12865;51.934;10.330;2022-12-10T20:29:17;98651.22;;;-1.08;100.00
24762;BME280;12865;51.934;10.330;2022-12-10T20:32:03;98657.97;;;-1.20;100.00
24762;BME280;12865;51.934;10.330;2022-12-10T20:34:49;98665.09;;;-1.24;100.00
24762;BME280;12865;51.934;10.330;2022-12-10T20:37:35;98658.03;;;-1.22;100.00
24762;BME280;12865;51.934;10.330;2022-12-10T20:40:22;98657.19;;;-1.22;100.00
24762;BME280;12865;51.934;10.330;2022-12-10T20:43:11;98655.34;;;-1.20;100.00
24762;BME280;12865;51.934;10.330;2022-12-10T20:45:57;98652.72;;;-1.20;100.00
24762;BME280;12865;51.934;10.330;2022-12-10T20:48:43;98652.72;;;-1.20;100.00
24762;BME280;12865;51.934;10.330;2022-12-10T20:51:28;98655.41;;;-1.22;100.00
24762;BME280;12865;51.934;10.330;2022-12-10T20:54:14;98653.91;;;-1.10;100.00
24762;BME280;12865;51.934;10.330;2022-12-10T20:57:00;98655.28;;;-1.03;100.00
24762;BME280;12865;51.934;10.330;2022-12-10T20:59:46;98652.06;;;-1.08;100.00
24762;BME280;12865;51.934;10.330;2022-12-10T21:02:32;98652.66;;;-1.03;100.00
24762;BME280;12865;51.934;10.330;2022-12-10T21:05:18;98657.34;;;-0.92;100.00
24762;BME280;12865;51.934;10.330;2022-12-10T21:08:03;98654.75;;;-1.09;100.00
24762;BME280;12865;51.934;10.330;2022-12-10T21:10:52;98649.97;;;-1.01;100.00
24762;BME280;12865;51.934;10.330;2022-12-10T21:13:41;98647.44;;;-1.03;100.00
24762;BME280;12865;51.934;10.330;2022-12-10T21:16:27;98653.31;;;-1.15;100.00
24762;BME280;12865;51.934;10.330;2022-12-10T21:19:13;98655.50;;;-1.23;100.00
24762;BME280;12865;51.934;10.330;2022-12-10T21:21:59;98652.88;;;-1.23;100.00
24762;BME280;12865;51.934;10.330;2022-12-10T21:24:44;98657.00;;;-1.35;100.00
24762;BME280;12865;51.934;10.330;2022-12-10T21:27:30;98654.84;;;-1.44;100.00
24762;BME280;12865;51.934;10.330;2022-12-10T21:30:17;98651.06;;;-1.38;100.00
24762;BME280;12865;51.934;10.330;2022-12-10T21:33:03;98655.53;;;-1.40;100.00
24762;BME280;12865;51.934;10.330;2022-12-10T21:35:49;98654.13;;;-1.30;100.00
24762;BME280;12865;51.934;10.330;2022-12-10T21:38:36;98658.59;;;-1.32;100.00
24762;BME280;12865;51.934;10.330;2022-12-10T21:41:24;98656.75;;;-1.30;100.00
24762;BME280;12865;51.934;10.330;2022-12-10T21:44:28;98650.84;;;-1.34;100.00
24762;BME280;12865;51.934;10.330;2022-12-10T21:47:14;98655.91;;;-1.31;100.00
24762;BME280;12865;51.934;10.330;2022-12-10T21:50:00;98659.69;;;-1.36;100.00
24762;BME280;12865;51.934;10.330;2022-12-10T21:52:45;98654.97;;;-1.30;100.00
24762;BME280;12865;51.934;10.330;2022-12-10T21:55:34;98651.72;;;-1.17;100.00
24762;BME280;12865;51.934;10.330;2022-12-10T21:58:20;98648.81;;;-1.29;100.00
24762;BME280;12865;51.934;10.330;2022-12-10T22:01:06;98650.34;;;-1.25;100.00
24762;BME280;12865;51.934;10.330;2022-12-10T22:03:52;98649.34;;;-1.22;100.00
24762;BME280;12865;51.934;10.330;2022-12-10T22:06:37;98645.50;;;-1.32;100.00
24762;BME280;12865;51.934;10.330;2022-12-10T22:09:23;98644.91;;;-1.37;100.00
24762;BME280;12865;51.934;10.330;2022-12-10T22:12:09;98644.38;;;-1.44;100.00
24762;BME280;12865;51.934;10.330;2022-12-10T22:14:54;98636.78;;;-1.48;100.00
24762;BME280;12865;51.934;10.330;2022-12-10T22:17:40;98635.38;;;-1.38;100.00
24762;BME280;12865;51.934;10.330;2022-12-10T22:20:26;98638.91;;;-1.39;100.00
24762;BME280;12865;51.934;10.330;2022-12-10T22:23:13;98639.88;;;-1.40;100.00
24762;BME280;12865;51.934;10.330;2022-12-10T22:26:06;98634.63;;;-1.40;100.00
24762;BME280;12865;51.934;10.330;2022-12-10T22:28:53;98630.84;;;-1.35;100.00
24762;BME280;12865;51.934;10.330;2022-12-10T22:31:38;98627.38;;;-1.35;100.00
24762;BME280;12865;51.934;10.330;2022-12-10T22:34:24;98620.97;;;-1.30;100.00
24762;BME280;12865;51.934;10.330;2022-12-10T22:37:10;98627.22;;;-1.32;100.00
24762;BME280;12865;51.934;10.330;2022-12-10T22:39:56;98629.56;;;-1.43;100.00
24762;BME280;12865;51.934;10.330;2022-12-10T22:42:49;98632.94;;;-1.41;100.00
24762;BME280;12865;51.934;10.330;2022-12-10T22:45:41;98634.34;;;-1.51;100.00
24762;BME280;12865;51.934;10.330;2022-12-10T22:48:27;98627.66;;;-1.57;100.00
24762;BME280;12865;51.934;10.330;2022-12-10T22:51:13;98633.41;;;-1.50;100.00
24762;BME280;12865;51.934;10.330;2022-12-10T22:53:59;98637.88;;;-1.52;100.00
24762;BME280;12865;51.934;10.330;2022-12-10T22:56:45;98631.88;;;-1.54;100.00
24762;BME280;12865;51.934;10.330;2022-12-10T22:59:31;98636.16;;;-1.53;100.00
24762;BME280;12865;51.934;10.330;2022-12-10T23:02:17;98639.41;;;-1.48;100.00
24762;BME280;12865;51.934;10.330;2022-12-10T23:05:04;98641.09;;;-1.47;100.00
24762;BME280;12865;51.934;10.330;2022-12-10T23:07:49;98631.06;;;-1.39;100.00
24762;BME280;12865;51.934;10.330;2022-12-10T23:10:37;98636.94;;;-1.34;100.00
24762;BME280;12865;51.934;10.330;2022-12-10T23:13:24;98637.84;;;-1.35;100.00
24762;BME280;12865;51.934;10.330;2022-12-10T23:16:13;98631.84;;;-1.37;100.00
24762;BME280;12865;51.934;10.330;2022-12-10T23:18:59;98625.38;;;-1.30;100.00
24762;BME280;12865;51.934;10.330;2022-12-10T23:21:45;98628.44;;;-1.55;100.00
24762;BME280;12865;51.934;10.330;2022-12-10T23:24:30;98631.88;;;-1.54;100.00
24762;BME280;12865;51.934;10.330;2022-12-10T23:27:16;98619.88;;;-1.41;100.00
24762;BME280;12865;51.934;10.330;2022-12-10T23:30:02;98619.16;;;-1.45;100.00
24762;BME280;12865;51.934;10.330;2022-12-10T23:32:49;98627.19;;;-1.48;100.00
24762;BME280;12865;51.934;10.330;2022-12-10T23:35:39;98620.66;;;-1.56;100.00
24762;BME280;12865;51.934;10.330;2022-12-10T23:38:25;98616.94;;;-1.52;100.00
24762;BME280;12865;51.934;10.330;2022-12-10T23:41:11;98617.72;;;-1.50;100.00
24762;BME280;12865;51.934;10.330;2022-12-10T23:43:57;98614.34;;;-1.52;100.00
24762;BME280;12865;51.934;10.330;2022-12-10T23:46:43;98622.34;;;-1.55;100.00
24762;BME280;12865;51.934;10.330;2022-12-10T23:49:28;98622.50;;;-1.59;100.00
24762;BME280;12865;51.934;10.330;2022-12-10T23:52:14;98628.78;;;-1.45;100.00
24762;BME280;12865;51.934;10.330;2022-12-10T23:55:00;98626.03;;;-1.60;100.00
24762;BME280;12865;51.934;10.330;2022-12-10T23:57:45;98625.13;;;-1.59;100.00
